Time;durP1;ratioP1;P1;durP2;ratioP2;P2;SDS_P1;SDS_P2;PMS_P1;PMS_P2;Temp;Humidity;BMP_temperature;BMP_pressure;BME280_temperature;BME280_humidity;BME280_pressure;Samples;Min_cycle;Max_cycle;Signal;HPM_P1;HPM_P2
2020/12/19 00:00:35;;;;;;;11.27;4.67;;;;;;;2.29;100.00;101117.31;4999959;28;20058;-66
2020/12/19 00:03:01;;;;;;;12.93;4.60;;;;;;;2.31;100.00;101114.84;5000972;28;20492;-66
2020/12/19 00:05:26;;;;;;;19.03;5.33;;;;;;;2.23;100.00;101113.63;4964577;28;20026;-65
2020/12/19 00:07:51;;;;;;;12.53;4.83;;;;;;;2.25;100.00;101099.97;4982503;28;20100;-65
2020/12/19 00:10:17;;;;;;;14.70;5.23;;;;;;;2.22;100.00;101105.00;4964728;28;20034;-65
2020/12/19 00:12:45;;;;;;;12.03;5.57;;;;;;;2.19;100.00;101107.47;4979929;28;20031;-65
2020/12/19 00:15:16;;;;;;;14.83;5.40;;;;;;;2.21;100.00;101107.53;5008762;28;20047;-65
2020/12/19 00:17:42;;;;;;;11.43;5.30;;;;;;;2.19;100.00;101096.25;5002867;28;20667;-65
2020/12/19 00:20:08;;;;;;;15.27;5.90;;;;;;;2.18;100.00;101099.63;4986311;28;20284;-64
2020/12/19 00:22:33;;;;;;;13.97;5.23;;;;;;;2.13;100.00;101098.56;4982361;28;20025;-66
2020/12/19 00:24:59;;;;;;;15.17;6.33;;;;;;;2.14;100.00;101098.63;4957663;28;20671;-65
2020/12/19 00:27:24;;;;;;;15.70;5.90;;;;;;;2.24;100.00;101087.88;4969952;28;20108;-65
2020/12/19 00:29:50;;;;;;;14.13;5.80;;;;;;;2.25;100.00;101088.75;4981526;28;20041;-66
2020/12/19 00:32:15;;;;;;;17.40;6.23;;;;;;;2.26;100.00;101091.41;4978289;28;20057;-66
2020/12/19 00:34:41;;;;;;;15.77;5.70;;;;;;;2.20;100.00;101090.28;4986322;28;20025;-66
2020/12/19 00:37:06;;;;;;;17.40;6.37;;;;;;;2.22;100.00;101074.03;4999964;28;20026;-65
2020/12/19 00:39:32;;;;;;;14.93;5.90;;;;;;;2.29;100.00;101081.19;5000401;28;20025;-64
2020/12/19 00:41:57;;;;;;;18.60;5.97;;;;;;;2.30;100.00;101082.06;4998002;28;20418;-66
2020/12/19 00:44:23;;;;;;;16.70;6.63;;;;;;;2.24;100.00;101077.56;5004006;28;20031;-66
2020/12/19 00:46:51;;;;;;;18.77;5.67;;;;;;;2.34;100.00;101078.81;5005562;28;20050;-66
2020/12/19 00:49:17;;;;;;;18.10;7.07;;;;;;;2.38;100.00;101069.50;4982319;28;20025;-63
2020/12/19 00:51:43;;;;;;;13.37;5.77;;;;;;;2.38;100.00;101069.50;4996738;28;20285;-66
2020/12/19 00:54:09;;;;;;;21.80;7.73;;;;;;;2.35;100.00;101071.16;4999475;28;20121;-64
2020/12/19 00:56:35;;;;;;;17.07;6.50;;;;;;;2.41;100.00;101059.28;5001285;28;20371;-65
2020/12/19 00:59:00;;;;;;;15.20;6.03;;;;;;;2.40;100.00;101063.56;4999722;28;20037;-66
2020/12/19 01:01:26;;;;;;;18.67;6.93;;;;;;;2.32;100.00;101065.88;4982885;28;20036;-65
2020/12/19 01:03:53;;;;;;;20.83;6.70;;;;;;;2.30;100.00;101061.44;5005065;28;20030;-65
2020/12/19 01:06:21;;;;;;;22.27;7.30;;;;;;;2.24;100.00;101062.09;4993211;28;20030;-65
2020/12/19 01:08:48;;;;;;;16.57;6.67;;;;;;;2.17;100.00;101059.19;4998457;28;20270;-65
2020/12/19 01:11:18;;;;;;;16.57;5.93;;;;;;;1.85;100.00;101070.75;4993867;28;20269;-65
2020/12/19 01:13:43;;;;;;;15.50;5.97;;;;;;;1.48;100.00;101065.72;4998450;28;20281;-66
2020/12/19 01:16:16;;;;;;;15.80;6.03;;;;;;;1.43;100.00;101060.34;4998751;28;20277;-65
2020/12/19 01:18:46;;;;;;;14.53;5.80;;;;;;;1.28;100.00;101065.69;4998715;28;20025;-65
2020/12/19 01:21:12;;;;;;;15.07;5.87;;;;;;;1.16;100.00;101067.72;4992449;28;20814;-66
2020/12/19 01:23:38;;;;;;;16.27;5.97;;;;;;;1.01;100.00;101055.03;4998255;28;20510;-66
2020/12/19 01:26:03;;;;;;;16.13;6.03;;;;;;;1.22;100.00;101061.97;5008490;28;20268;-65
2020/12/19 01:28:29;;;;;;;21.93;6.30;;;;;;;1.17;100.00;101059.19;4993571;28;20029;-65
2020/12/19 01:30:54;;;;;;;20.23;6.53;;;;;;;1.15;100.00;101058.25;4996957;28;20042;-65
2020/12/19 01:33:20;;;;;;;18.50;5.83;;;;;;;1.03;100.00;101058.56;4992592;28;20061;-65
2020/12/19 01:35:45;;;;;;;25.97;6.30;;;;;;;1.31;100.00;101059.78;5001174;28;20026;-66
2020/12/19 01:38:11;;;;;;;17.97;6.43;;;;;;;1.37;100.00;101049.78;5006771;28;20021;-64
2020/12/19 01:40:36;;;;;;;21.10;6.37;;;;;;;1.22;100.00;101054.25;5000940;28;20026;-66
2020/12/19 01:43:03;;;;;;;25.77;6.77;;;;;;;1.08;100.00;101051.91;4998597;28;20041;-66
2020/12/19 01:45:29;;;;;;;25.17;6.90;;;;;;;1.17;100.00;101047.19;4992136;28;20014;-65
2020/12/19 01:47:56;;;;;;;38.40;8.53;;;;;;;1.37;100.00;101039.47;4994859;28;20307;-66
2020/12/19 01:50:21;;;;;;;28.77;8.33;;;;;;;1.53;100.00;101041.88;4991861;28;20100;-66
2020/12/19 01:52:47;;;;;;;35.73;8.43;;;;;;;1.70;100.00;101035.78;4994294;28;20317;-65
2020/12/19 01:55:13;;;;;;;33.40;8.43;;;;;;;1.73;100.00;101035.91;4992444;28;20117;-66
2020/12/19 01:57:41;;;;;;;40.13;8.87;;;;;;;1.88;100.00;101030.50;4982755;28;20356;-66
2020/12/19 02:00:07;;;;;;;41.30;8.33;;;;;;;2.09;100.00;101029.63;5004671;28;20434;-66
2020/12/19 02:02:32;;;;;;;43.53;9.60;;;;;;;2.28;100.00;101027.84;4995575;28;20293;-66
2020/12/19 02:04:58;;;;;;;37.87;9.70;;;;;;;2.29;100.00;101020.97;4990034;28;20323;-67
2020/12/19 02:07:24;;;;;;;50.23;10.53;;;;;;;2.29;100.00;101016.69;4994062;28;20033;-66
2020/12/19 02:09:51;;;;;;;39.47;10.03;;;;;;;2.29;100.00;101019.28;4990044;28;20049;-66
2020/12/19 02:12:17;;;;;;;43.90;9.50;;;;;;;2.35;100.00;101018.66;4995384;28;20038;-66
2020/12/19 02:14:42;;;;;;;38.77;9.77;;;;;;;2.32;100.00;101009.09;4990685;28;20332;-65
2020/12/19 02:17:10;;;;;;;41.80;9.80;;;;;;;2.31;100.00;101007.34;5000494;28;20046;-65
2020/12/19 02:19:36;;;;;;;34.10;9.07;;;;;;;2.29;100.00;101006.38;4966498;28;20545;-66
2020/12/19 02:22:04;;;;;;;36.63;9.63;;;;;;;2.22;100.00;101003.50;4997628;28;20285;-66
2020/12/19 02:24:29;;;;;;;29.37;8.60;;;;;;;2.22;100.00;101001.81;4993977;28;21148;-66
2020/12/19 02:26:57;;;;;;;43.70;9.80;;;;;;;2.24;100.00;100999.28;4976510;28;20795;-66
2020/12/19 02:29:23;;;;;;;53.10;10.80;;;;;;;2.23;100.00;100998.41;4977132;28;20474;-65
2020/12/19 02:31:49;;;;;;;40.73;9.83;;;;;;;2.28;100.00;100996.88;4980139;28;20317;-66
2020/12/19 02:34:15;;;;;;;45.27;10.40;;;;;;;2.33;100.00;100995.38;4973121;28;20378;-66
2020/12/19 02:36:41;;;;;;;43.00;10.57;;;;;;;2.46;100.00;100993.28;4966456;28;20344;-65
2020/12/19 02:39:08;;;;;;;36.80;10.90;;;;;;;2.47;100.00;100987.28;4976276;28;20076;-66
2020/12/19 02:41:39;;;;;;;46.90;10.43;;;;;;;2.48;100.00;100984.75;4998392;28;20029;-66
2020/12/19 02:44:07;;;;;;;42.80;10.23;;;;;;;2.52;100.00;100980.59;4994944;28;20273;-66
2020/12/19 02:46:33;;;;;;;48.70;10.87;;;;;;;2.59;100.00;100980.00;4999876;28;20284;-66
2020/12/19 02:48:58;;;;;;;44.23;10.63;;;;;;;2.61;100.00;100975.78;4975299;28;20273;-66
2020/12/19 02:51:24;;;;;;;43.53;10.03;;;;;;;2.61;100.00;100975.78;4982718;28;20041;-64
2020/12/19 02:53:49;;;;;;;40.70;10.47;;;;;;;2.68;100.00;100982.06;4973766;28;20014;-66
2020/12/19 02:56:14;;;;;;;50.03;10.87;;;;;;;2.65;100.00;100970.78;4996974;28;20635;-64
2020/12/19 02:58:40;;;;;;;43.33;10.73;;;;;;;2.64;100.00;100970.72;4998195;28;20023;-65
2020/12/19 03:01:05;;;;;;;41.87;10.53;;;;;;;2.62;100.00;100967.22;4993607;28;20102;-63
2020/12/19 03:03:31;;;;;;;34.87;9.50;;;;;;;2.61;100.00;100965.47;4994182;28;20030;-66
2020/12/19 03:05:56;;;;;;;41.30;10.03;;;;;;;2.69;100.00;100961.47;4996203;28;20025;-65
2020/12/19 03:08:22;;;;;;;43.47;9.63;;;;;;;2.73;100.00;100963.34;4999410;28;20022;-66
2020/12/19 03:10:47;;;;;;;38.00;9.70;;;;;;;2.83;100.00;100961.97;5008742;28;20022;-65
2020/12/19 03:13:12;;;;;;;38.40;10.70;;;;;;;2.86;100.00;100957.78;4999052;28;20022;-66
2020/12/19 03:15:38;;;;;;;38.47;10.17;;;;;;;2.97;100.00;100952.16;4994861;28;20069;-66
2020/12/19 03:18:03;;;;;;;36.50;9.13;;;;;;;2.99;100.00;100953.97;4999321;28;20033;-66
2020/12/19 03:20:29;;;;;;;35.73;9.97;;;;;;;2.94;100.00;100946.06;4996630;28;20025;-65
2020/12/19 03:22:54;;;;;;;36.40;10.40;;;;;;;2.92;100.00;100952.00;4998322;28;20030;-64
2020/12/19 03:25:20;;;;;;;33.57;9.23;;;;;;;2.84;100.00;100943.94;4996072;28;20025;-65
2020/12/19 03:27:45;;;;;;;33.13;9.47;;;;;;;2.78;100.00;100954.03;4994421;28;20081;-66
2020/12/19 03:30:11;;;;;;;36.03;9.33;;;;;;;2.82;100.00;100955.94;4997648;28;20037;-66
2020/12/19 03:32:36;;;;;;;37.27;9.33;;;;;;;2.85;100.00;100950.00;5000335;28;20034;-66
2020/12/19 03:35:02;;;;;;;34.03;9.57;;;;;;;2.90;100.00;100954.50;4993699;28;20442;-66
2020/12/19 03:37:28;;;;;;;33.43;9.23;;;;;;;3.01;100.00;100948.84;4996774;28;20532;-65
2020/12/19 03:39:53;;;;;;;42.20;9.47;;;;;;;3.12;100.00;100939.78;4994264;28;20045;-67
2020/12/19 03:42:19;;;;;;;31.90;8.63;;;;;;;3.15;100.00;100939.88;5000845;28;20036;-66
2020/12/19 03:44:44;;;;;;;37.60;10.00;;;;;;;3.22;100.00;100936.69;4996616;28;20109;-66
2020/12/19 03:47:10;;;;;;;30.77;9.13;;;;;;;3.28;100.00;100946.38;5008733;28;20665;-65
2020/12/19 03:49:35;;;;;;;35.00;9.77;;;;;;;3.26;100.00;100932.50;4995537;28;20041;-66
2020/12/19 03:52:00;;;;;;;33.47;10.53;;;;;;;3.33;100.00;100931.88;4963095;28;20076;-66
2020/12/19 03:54:26;;;;;;;39.27;10.17;;;;;;;3.35;100.00;100938.00;4960227;28;20117;-66
2020/12/19 03:56:51;;;;;;;31.17;9.80;;;;;;;3.30;100.00;100935.25;4993648;28;20030;-66
2020/12/19 03:59:17;;;;;;;32.97;9.90;;;;;;;3.28;100.00;100936.91;4995644;28;20033;-66
2020/12/19 04:01:42;;;;;;;38.13;10.50;;;;;;;3.30;100.00;100934.38;4982046;28;20027;-65
2020/12/19 04:04:08;;;;;;;35.83;11.10;;;;;;;3.30;100.00;100927.50;5001430;28;20041;-66
2020/12/19 04:06:33;;;;;;;38.40;10.97;;;;;;;3.28;100.00;100934.34;4998694;28;20022;-65
2020/12/19 04:08:59;;;;;;;34.03;11.33;;;;;;;3.30;100.00;100930.09;4994801;28;20410;-66
2020/12/19 04:11:24;;;;;;;36.00;12.07;;;;;;;3.34;100.00;100926.78;4995004;28;20489;-65
2020/12/19 04:13:49;;;;;;;44.10;13.47;;;;;;;3.35;100.00;100927.66;4995414;28;20473;-64
2020/12/19 04:16:15;;;;;;;40.80;12.47;;;;;;;3.38;100.00;100932.91;4997298;28;20026;-68
2020/12/19 04:18:40;;;;;;;47.87;14.27;;;;;;;3.32;100.00;100923.25;4996434;28;20461;-68
2020/12/19 04:21:07;;;;;;;40.07;12.80;;;;;;;3.33;100.00;100924.13;4997505;28;20076;-66
2020/12/19 04:23:33;;;;;;;41.67;13.60;;;;;;;3.33;100.00;100913.81;4992980;28;20032;-66
2020/12/19 04:25:59;;;;;;;46.80;14.00;;;;;;;3.31;100.00;100921.50;4961337;28;20368;-66
2020/12/19 04:28:25;;;;;;;47.97;13.93;;;;;;;3.31;100.00;100918.91;4979876;28;20285;-66
2020/12/19 04:30:50;;;;;;;53.03;15.77;;;;;;;3.35;100.00;100914.72;4977792;28;20756;-69
2020/12/19 04:33:16;;;;;;;49.17;16.00;;;;;;;3.23;100.00;100917.78;4998028;28;20077;-69
2020/12/19 04:35:42;;;;;;;50.47;16.00;;;;;;;3.21;100.00;100914.25;4965144;28;20040;-65
2020/12/19 04:38:07;;;;;;;58.13;18.43;;;;;;;3.10;100.00;100911.31;4979127;28;20022;-66
2020/12/19 04:40:33;;;;;;;57.40;16.50;;;;;;;3.06;100.00;100918.91;4994292;28;20109;-65
2020/12/19 04:42:59;;;;;;;64.97;17.27;;;;;;;3.04;100.00;100905.06;5002241;28;20460;-65
2020/12/19 04:45:25;;;;;;;52.90;16.83;;;;;;;3.06;100.00;100901.69;4993134;28;20104;-69
2020/12/19 04:47:50;;;;;;;55.10;16.53;;;;;;;3.13;100.00;100900.19;4995044;28;20363;-68
2020/12/19 04:50:16;;;;;;;46.50;16.03;;;;;;;3.17;100.00;100896.91;4996272;28;20110;-66
2020/12/19 04:52:42;;;;;;;48.60;14.17;;;;;;;3.17;100.00;100897.78;4998086;28;20076;-66
2020/12/19 04:55:08;;;;;;;43.27;15.43;;;;;;;3.16;100.00;100901.19;4992576;28;20281;-66
2020/12/19 04:57:34;;;;;;;40.87;13.37;;;;;;;3.20;100.00;100897.88;4997685;28;20015;-66
2020/12/19 05:00:00;;;;;;;42.17;12.50;;;;;;;3.17;100.00;100896.91;4994198;28;20072;-65
2020/12/19 05:02:25;;;;;;;45.40;13.33;;;;;;;3.14;100.00;100891.59;4995260;28;20367;-66
2020/12/19 05:04:50;;;;;;;40.00;11.87;;;;;;;3.20;100.00;100891.84;4996443;28;20540;-65
2020/12/19 05:07:16;;;;;;;38.17;11.87;;;;;;;3.17;100.00;100881.41;5003178;28;20026;-66
2020/12/19 05:09:43;;;;;;;35.27;10.50;;;;;;;3.20;100.00;100878.91;5006058;28;20044;-66
2020/12/19 05:12:10;;;;;;;36.67;10.93;;;;;;;3.09;100.00;100888.88;4996694;28;20029;-66
2020/12/19 05:14:37;;;;;;;44.70;10.77;;;;;;;3.09;100.00;100888.00;4993994;28;20632;-66
2020/12/19 05:17:03;;;;;;;40.13;12.50;;;;;;;3.02;100.00;100883.44;5003360;28;20284;-68
2020/12/19 05:19:29;;;;;;;29.83;10.10;;;;;;;3.00;100.00;100887.69;5009541;28;20264;-66
2020/12/19 05:21:56;;;;;;;31.10;9.23;;;;;;;3.03;100.00;100883.50;4995509;28;20308;-66
2020/12/19 05:24:30;;;;;;;32.07;9.67;;;;;;;3.01;100.00;100884.25;4996971;28;20269;-66
2020/12/19 05:26:56;;;;;;;35.07;11.07;;;;;;;3.00;100.00;100877.34;4998682;28;20273;-66
2020/12/19 05:29:22;;;;;;;34.43;10.23;;;;;;;2.99;100.00;100870.41;4996398;28;20364;-67
2020/12/19 05:31:56;;;;;;;39.63;10.20;;;;;;;3.01;100.00;100872.22;4976248;28;20369;-66
2020/12/19 05:34:22;;;;;;;36.97;10.57;;;;;;;3.01;100.00;100873.94;4979386;28;20077;-66
2020/12/19 05:36:50;;;;;;;35.77;10.63;;;;;;;3.02;100.00;100866.22;4977803;28;20308;-66
2020/12/19 05:39:15;;;;;;;35.47;10.53;;;;;;;3.06;100.00;100868.13;4983381;28;20290;-67
2020/12/19 05:41:41;;;;;;;36.80;9.43;;;;;;;3.05;100.00;100870.66;4985692;28;20272;-65
2020/12/19 05:44:07;;;;;;;33.60;9.87;;;;;;;2.98;100.00;100873.84;4975809;28;20112;-66
2020/12/19 05:46:38;;;;;;;31.80;10.00;;;;;;;2.85;100.00;100878.56;5006023;28;20819;-67
2020/12/19 05:49:06;;;;;;;32.77;9.83;;;;;;;2.84;100.00;100876.81;4991663;28;20049;-66
2020/12/19 05:51:33;;;;;;;42.07;10.63;;;;;;;2.79;100.00;100870.63;4996975;28;20269;-66
2020/12/19 05:54:04;;;;;;;34.80;10.67;;;;;;;2.73;100.00;100867.81;4991179;28;20668;-67
2020/12/19 05:56:34;;;;;;;40.03;10.87;;;;;;;2.70;100.00;100878.03;5003306;28;20287;-67
2020/12/19 05:59:02;;;;;;;30.10;9.83;;;;;;;2.75;100.00;100880.75;5009882;28;20612;-67
2020/12/19 06:01:28;;;;;;;37.33;11.80;;;;;;;2.71;100.00;100881.50;4998455;28;20979;-66
2020/12/19 06:03:55;;;;;;;43.30;11.57;;;;;;;2.73;100.00;100878.13;4991268;28;20266;-66
2020/12/19 06:06:22;;;;;;;43.20;12.80;;;;;;;2.71;100.00;100879.78;4996379;28;20277;-67
2020/12/19 06:08:48;;;;;;;46.30;11.83;;;;;;;2.66;100.00;100870.97;4990659;28;20265;-66
2020/12/19 06:11:19;;;;;;;35.60;11.03;;;;;;;2.65;100.00;100874.38;4995738;28;20273;-66
2020/12/19 06:13:57;;;;;;;36.40;9.70;;;;;;;2.69;100.00;100870.22;4994617;28;20540;-67
2020/12/19 06:16:23;;;;;;;46.17;10.90;;;;;;;2.57;100.00;100863.81;4996946;28;20368;-66
2020/12/19 06:18:51;;;;;;;44.17;11.80;;;;;;;2.46;100.00;100865.13;4990325;28;20305;-66
2020/12/19 06:21:18;;;;;;;46.93;11.57;;;;;;;2.30;100.00;100861.09;4995207;28;20838;-64
2020/12/19 06:23:44;;;;;;;41.53;11.17;;;;;;;2.19;100.00;100864.97;5008844;28;20641;-65
2020/12/19 06:26:11;;;;;;;47.87;11.63;;;;;;;2.20;100.00;100853.84;5001162;28;20367;-67
2020/12/19 06:28:45;;;;;;;42.60;12.03;;;;;;;2.18;100.00;100859.72;4993982;28;20030;-66
2020/12/19 06:31:14;;;;;;;42.97;11.70;;;;;;;2.23;100.00;100853.94;4994986;28;20779;-67
2020/12/19 06:33:41;;;;;;;50.37;11.90;;;;;;;2.29;100.00;100854.16;4990299;28;20662;-66
2020/12/19 06:36:16;;;;;;;41.70;11.60;;;;;;;2.28;100.00;100856.69;4993490;28;20346;-67
2020/12/19 06:38:56;;;;;;;51.17;11.70;;;;;;;2.40;100.00;100856.25;4992620;28;20335;-65
2020/12/19 06:41:58;;;;;;;52.23;11.53;;;;;;;2.48;100.00;100870.31;5006766;28;20268;-66
2020/12/19 06:44:32;;;;;;;44.03;11.07;;;;;;;2.37;100.00;100863.88;5013636;28;20292;-66
2020/12/19 06:47:02;;;;;;;52.03;12.53;;;;;;;2.43;100.00;100856.38;4997389;28;20045;-66
2020/12/19 06:49:29;;;;;;;46.70;11.73;;;;;;;2.43;100.00;100862.44;4998950;28;20264;-66
2020/12/19 06:52:11;;;;;;;47.40;12.50;;;;;;;2.35;100.00;100854.41;4997342;28;20281;-66
2020/12/19 06:54:37;;;;;;;47.30;11.25;;;;;;;2.34;100.00;100862.09;5004943;28;20283;-67
2020/12/19 06:57:03;;;;;;;55.67;12.97;;;;;;;2.39;100.00;100857.06;4996960;28;20046;-66
2020/12/19 06:59:31;;;;;;;52.83;12.53;;;;;;;2.45;100.00;100865.94;5005675;28;20019;-67
2020/12/19 07:02:20;;;;;;;48.30;11.97;;;;;;;2.45;100.00;100854.75;4999133;28;20280;-65
2020/12/19 07:04:46;;;;;;;56.10;13.23;;;;;;;2.40;100.00;100861.41;4999905;28;20293;-65
2020/12/19 07:07:26;;;;;;;56.23;12.93;;;;;;;2.30;100.00;100861.09;5002077;28;20679;-66
2020/12/19 07:10:00;;;;;;;65.13;13.23;;;;;;;2.37;100.00;100854.44;4999893;28;20292;-65
2020/12/19 07:12:28;;;;;;;48.60;12.20;;;;;;;2.38;100.00;100855.31;5008074;28;20272;-66
2020/12/19 07:14:54;;;;;;;59.83;12.67;;;;;;;2.37;100.00;100854.44;4998557;28;20724;-66
2020/12/19 07:17:20;;;;;;;53.73;12.87;;;;;;;2.40;100.00;100856.25;4997619;28;20371;-65
2020/12/19 07:19:46;;;;;;;63.87;13.13;;;;;;;2.48;100.00;100849.69;5000537;28;20030;-66
2020/12/19 07:22:12;;;;;;;58.90;13.53;;;;;;;2.43;100.00;100849.53;5008887;28;20029;-66
2020/12/19 07:24:38;;;;;;;61.53;13.13;;;;;;;2.43;100.00;100856.38;4999028;28;20336;-67
2020/12/19 07:27:04;;;;;;;61.57;14.47;;;;;;;2.44;100.00;100856.44;5001562;28;20307;-66
2020/12/19 07:29:30;;;;;;;63.23;13.47;;;;;;;2.41;100.00;100858.00;5005376;28;20660;-67
2020/12/19 07:32:00;;;;;;;57.50;12.87;;;;;;;2.44;100.00;100859.03;4995998;28;20409;-66
2020/12/19 07:34:27;;;;;;;73.87;14.33;;;;;;;2.44;100.00;100859.03;5000075;28;20068;-65
2020/12/19 07:36:54;;;;;;;64.17;13.17;;;;;;;2.48;100.00;100860.88;5001291;28;20297;-66
2020/12/19 07:39:21;;;;;;;68.23;13.07;;;;;;;2.49;100.00;100856.59;5001334;28;20277;-66
2020/12/19 07:41:59;;;;;;;72.33;15.07;;;;;;;2.45;100.00;100858.19;4997145;28;20358;-66
2020/12/19 07:44:24;;;;;;;67.37;13.37;;;;;;;2.45;100.00;100855.63;4997773;28;20273;-66
2020/12/19 07:46:55;;;;;;;73.73;14.10;;;;;;;2.46;100.00;100861.66;4998367;28;20399;-66
2020/12/19 07:49:34;;;;;;;70.20;13.27;;;;;;;2.50;100.00;100848.03;4998289;28;20041;-67
2020/12/19 07:52:08;;;;;;;77.93;15.97;;;;;;;2.63;100.00;100855.38;4995581;28;20285;-66
2020/12/19 07:54:34;;;;;;;63.60;13.17;;;;;;;2.63;100.00;100842.47;4993315;28;20354;-66
2020/12/19 07:57:01;;;;;;;72.17;14.03;;;;;;;2.65;100.00;100843.41;5001409;28;20347;-66
2020/12/19 07:59:27;;;;;;;64.67;14.47;;;;;;;2.69;100.00;100845.28;4995228;28;20269;-66
2020/12/19 08:01:54;;;;;;;63.93;13.80;;;;;;;2.72;100.00;100850.56;4992454;28;20272;-66
2020/12/19 08:04:19;;;;;;;61.03;14.37;;;;;;;2.74;100.00;100848.91;4994234;28;20344;-66
2020/12/19 08:06:45;;;;;;;63.00;13.00;;;;;;;2.84;100.00;100851.00;4996886;28;20790;-66
2020/12/19 08:09:16;;;;;;;59.87;12.23;;;;;;;2.87;100.00;100845.91;5007446;28;20053;-67
2020/12/19 08:11:46;;;;;;;54.80;13.13;;;;;;;2.87;100.00;100850.22;4994915;28;21227;-66
2020/12/19 08:14:17;;;;;;;57.47;12.03;;;;;;;3.01;100.00;100840.34;5006700;28;20300;-66
2020/12/19 08:16:44;;;;;;;47.30;12.10;;;;;;;3.01;100.00;100838.66;4997304;28;20289;-66
2020/12/19 08:19:11;;;;;;;54.27;12.33;;;;;;;3.08;100.00;100834.59;4975292;28;20292;-66
2020/12/19 08:21:37;;;;;;;51.03;11.97;;;;;;;3.30;100.00;100842.22;4996122;28;20728;-66
2020/12/19 08:24:04;;;;;;;46.53;11.43;;;;;;;3.64;100.00;100843.31;4994296;28;20327;-67
2020/12/19 08:26:31;;;;;;;38.70;11.63;;;;;;;3.91;100.00;100826.06;5006231;28;20283;-67
2020/12/19 08:29:09;;;;;;;31.53;9.43;;;;;;;4.09;100.00;100836.06;4992280;28;20257;-67
2020/12/19 08:31:37;;;;;;;27.20;8.87;;;;;;;4.33;100.00;100843.66;4998317;28;20350;-66
2020/12/19 08:34:12;;;;;;;22.57;8.43;;;;;;;4.54;100.00;100844.28;4991861;28;20265;-65
2020/12/19 08:36:45;;;;;;;24.67;7.63;;;;;;;4.71;100.00;100848.22;4995722;28;20295;-66
2020/12/19 08:39:12;;;;;;;19.10;6.97;;;;;;;4.98;100.00;100847.22;5002950;28;20030;-66
2020/12/19 08:41:38;;;;;;;19.73;7.07;;;;;;;5.17;100.00;100846.84;5000532;28;20042;-66
2020/12/19 08:44:03;;;;;;;16.47;6.40;;;;;;;5.44;100.00;100848.38;4999550;28;20030;-66
2020/12/19 08:46:30;;;;;;;16.80;6.50;;;;;;;5.50;100.00;100839.03;5000830;28;20422;-66
2020/12/19 08:49:00;;;;;;;14.63;6.47;;;;;;;5.62;100.00;100843.63;5003004;28;20046;-66
2020/12/19 08:51:26;;;;;;;17.17;6.73;;;;;;;5.75;100.00;100850.88;4995559;28;20026;-66
2020/12/19 08:53:53;;;;;;;17.17;7.17;;;;;;;5.78;100.00;100845.75;4997764;28;20061;-67
2020/12/19 08:56:25;;;;;;;15.57;6.40;;;;;;;5.67;100.00;100841.16;4997993;28;20493;-67
2020/12/19 08:58:54;;;;;;;16.10;6.03;;;;;;;4.94;100.00;100843.66;4996708;28;20042;-65
2020/12/19 09:01:20;;;;;;;17.20;6.83;;;;;;;4.54;100.00;100851.19;5000785;28;20539;-66
2020/12/19 09:03:46;;;;;;;17.77;6.80;;;;;;;4.34;100.00;100837.66;5000672;28;20025;-67
2020/12/19 09:06:13;;;;;;;22.60;8.07;;;;;;;4.32;100.00;100844.50;4997114;28;20021;-67
2020/12/19 09:08:38;;;;;;;24.87;8.53;;;;;;;4.30;100.00;100838.41;4997970;28;20060;-67
2020/12/19 09:11:09;;;;;;;21.53;8.50;;;;;;;4.33;100.00;100833.31;4995116;28;20301;-67
2020/12/19 09:13:36;;;;;;;24.23;8.80;;;;;;;4.38;100.00;100830.03;5001840;28;20172;-67
2020/12/19 09:16:09;;;;;;;23.90;7.87;;;;;;;4.43;100.00;100830.16;4995265;28;20299;-66
2020/12/19 09:18:39;;;;;;;23.20;9.20;;;;;;;4.50;100.00;100829.50;4998727;28;20293;-66
2020/12/19 09:21:09;;;;;;;29.33;9.87;;;;;;;4.58;100.00;100828.00;5001404;28;20287;-66
2020/12/19 09:23:35;;;;;;;24.00;8.60;;;;;;;4.64;100.00;100828.19;4997902;28;20281;-66
2020/12/19 09:26:03;;;;;;;24.80;8.90;;;;;;;4.68;100.00;100832.59;4999365;28;20276;-66
2020/12/19 09:28:29;;;;;;;25.20;9.57;;;;;;;4.77;100.00;100825.91;4998520;28;20297;-69
2020/12/19 09:30:56;;;;;;;23.60;8.20;;;;;;;4.82;100.00;100830.38;4996238;28;20776;-69
2020/12/19 09:33:21;;;;;;;27.50;9.30;;;;;;;4.91;100.00;100829.75;5002595;28;20296;-68
2020/12/19 09:35:48;;;;;;;25.40;9.03;;;;;;;4.98;100.00;100832.56;4996492;28;20649;-69
2020/12/19 09:38:13;;;;;;;27.00;10.20;;;;;;;5.02;100.00;100828.31;4999058;28;20061;-66
2020/12/19 09:40:39;;;;;;;22.70;8.83;;;;;;;5.11;100.00;100825.97;4996565;28;20316;-66
2020/12/19 09:43:06;;;;;;;28.70;9.37;;;;;;;5.13;100.00;100826.88;4996160;28;20033;-66
2020/12/19 09:45:33;;;;;;;29.70;9.63;;;;;;;5.21;100.00;100825.38;4994135;28;20027;-67
2020/12/19 09:47:59;;;;;;;23.63;9.13;;;;;;;5.20;100.00;100844.31;5005052;28;20789;-65
2020/12/19 09:50:25;;;;;;;30.30;9.53;;;;;;;5.23;100.00;100841.84;5004978;28;20672;-67
2020/12/19 09:52:51;;;;;;;26.60;8.60;;;;;;;5.26;100.00;100835.84;4996356;28;20053;-65
2020/12/19 09:55:17;;;;;;;26.67;9.70;;;;;;;5.33;100.00;100829.06;5000132;28;20292;-66
2020/12/19 09:57:43;;;;;;;24.97;9.40;;;;;;;5.35;100.00;100838.66;5002880;28;20724;-66
2020/12/19 10:00:10;;;;;;;21.83;8.50;;;;;;;5.37;100.00;100836.13;5001050;28;20365;-66
2020/12/19 10:02:36;;;;;;;22.90;8.10;;;;;;;5.39;100.00;100831.84;4991480;28;20067;-66
2020/12/19 10:05:02;;;;;;;24.10;8.67;;;;;;;5.46;100.00;100833.75;5000526;28;20281;-66
2020/12/19 10:07:27;;;;;;;23.13;9.23;;;;;;;5.52;100.00;100841.66;5009224;28;20671;-65
2020/12/19 10:09:53;;;;;;;22.60;9.30;;;;;;;5.64;100.00;100836.75;5002404;28;20704;-66
2020/12/19 10:12:18;;;;;;;22.53;8.57;;;;;;;5.71;100.00;100833.50;4995510;28;20026;-66
2020/12/19 10:14:44;;;;;;;26.17;9.43;;;;;;;5.78;100.00;100824.09;4995407;28;20161;-66
2020/12/19 10:17:09;;;;;;;22.57;9.00;;;;;;;5.85;100.00;100824.28;4990631;28;20026;-66
2020/12/19 10:19:35;;;;;;;24.27;9.13;;;;;;;5.94;100.00;100822.78;4996675;28;20026;-66
2020/12/19 10:22:01;;;;;;;23.13;9.57;;;;;;;5.99;100.00;100824.63;5001683;28;20037;-65
2020/12/19 10:24:27;;;;;;;19.63;8.23;;;;;;;6.01;100.00;100822.06;4994747;28;20105;-67
2020/12/19 10:26:53;;;;;;;19.87;8.20;;;;;;;6.05;100.00;100818.69;4991096;28;20348;-66
2020/12/19 10:29:18;;;;;;;23.87;8.43;;;;;;;6.11;100.00;100814.50;4997433;28;20022;-67
2020/12/19 10:31:44;;;;;;;20.43;8.20;;;;;;;6.16;100.00;100818.06;4996872;28;20033;-66
2020/12/19 10:34:09;;;;;;;20.60;7.70;;;;;;;6.18;100.00;100810.34;4995621;28;20117;-65
2020/12/19 10:36:34;;;;;;;20.67;8.63;;;;;;;6.24;100.00;100815.66;4990428;28;20156;-65
2020/12/19 10:39:00;;;;;;;20.70;8.23;;;;;;;6.31;100.00;100807.16;4995146;28;20030;-66
2020/12/19 10:41:26;;;;;;;23.47;9.07;;;;;;;6.36;100.00;100802.91;4990675;28;20026;-66
2020/12/19 10:43:51;;;;;;;20.27;7.97;;;;;;;6.46;100.00;100796.19;5002004;28;20649;-66
2020/12/19 10:46:24;;;;;;;22.30;8.80;;;;;;;6.52;100.00;100793.69;4998495;28;20030;-65
2020/12/19 10:48:49;;;;;;;;;;;;;;;6.60;100.00;100791.25;5000646;28;20022;-65
2020/12/19 10:51:15;;;;;;;25.57;7.90;;;;;;;6.67;100.00;100780.13;4997655;28;19921;-65
2020/12/19 10:53:41;;;;;;;19.73;7.70;;;;;;;6.75;100.00;100781.13;4993398;28;20159;-66
2020/12/19 10:56:07;;;;;;;19.47;8.80;;;;;;;6.82;100.00;100772.59;5001622;28;20034;-65
2020/12/19 10:58:32;;;;;;;19.80;7.70;;;;;;;6.93;100.00;100773.69;4990887;28;20643;-66
2020/12/19 11:00:58;;;;;;;31.00;7.53;;;;;;;6.97;100.00;100765.06;4994610;28;20030;-65
2020/12/19 11:03:23;;;;;;;19.77;8.10;;;;;;;7.03;100.00;100761.72;4996217;28;20026;-66
2020/12/19 11:05:48;;;;;;;19.50;7.80;;;;;;;7.07;100.00;100754.84;4992812;28;20041;-67
2020/12/19 11:08:14;;;;;;;19.07;7.13;;;;;;;7.16;100.00;100755.88;4996591;28;20655;-65
2020/12/19 11:10:42;;;;;;;19.70;7.90;;;;;;;7.31;100.00;100734.41;5005738;28;20038;-66
2020/12/19 11:13:07;;;;;;;17.33;7.27;;;;;;;7.35;100.00;100724.06;5006234;28;20393;-65